Paris, TN (38242)

6:01 PM CDT on July 29, 2016 (GMT -0500)
PriWeather Paris, TN | | Change Station

Elev 517 ft 36.28 °N, 88.30 °W | Updated 23 seconds ago

Mostly Cloudy
Mostly Cloudy
84.7 °F
Feels Like 93 °F
N
0.0
Wind Variable Wind from SSE
Gusts 0.0 mph

Today
High -- | Low -- °F
--% Chance of Precip.
Yesterday
High -- | Low -- °F
Precip. -- in
Pressure 29.91 in
Visibility 10.0 miles
Clouds Scattered Clouds 3200 ft
Scattered Clouds 3900 ft
Mostly Cloudy 4800 ft
Heat Index 93 °F
Dew Point 75 °F
Humidity 73%
Rainfall 0.00 in
Snow Depth Not available.
5:58 AM 8:00 PM
Waning Crescent, 18% visible
METAR KCEY 292255Z AUTO 00000KT 10SM SCT032 SCT039 BKN048 23/23 A2991 RMK AO1 P0019
Pressure 29.91 in
Visibility 10.0 miles
Clouds Scattered Clouds 3200 ft
Scattered Clouds 3900 ft
Mostly Cloudy 4800 ft
Heat Index 93 °F
Dew Point 75 °F
Humidity 73%
Rainfall 0.00 in
Snow Depth Not available.
5:58 AM 8:00 PM
Waning Crescent, 18% visible
METAR KCEY 292255Z AUTO 00000KT 10SM SCT032 SCT039 BKN048 23/23 A2991 RMK AO1 P0019

10-Day Weather Forecast

Almanac

Astronomy

Jul. 29, 2016 Rise Set
Actual Time
Civil Twilight
Nautical Twilight
Astronomical Twilight
Moon
Length of Visible Light
Length of Day
Tomorrow will be .
, % of the Moon is Illuminated

Today's Extremes

State Highs State Lows

Community

WunderPhotos

Upload Photos

1,928,437 photos uploaded!

WunderBlog® & News

Nearby

Air Quality

  Air Quality AQ Index Pollutant
Not available.

Snow Depth

Station Depth Elevation

Earthquake Activity

City Distance Mag. Time & Date
Minimum magnitude displayed is 2.5.

Coastal Water Temperatures

Place Temperature

Stations

Nearby Weather Stations

Station Location Temp. Windchill Dew Point Humidity Wind Precip. Elev Updated Type
                   

Watches & Warnings

There are currently no watches in effect.